Terminal Aerodrome Forecast
Issued by NWS

Home | Current Version | Previous Version | Text Only | Print | Product List | Glossary On
Versions: 1 2 3 4 5 6 7 8 9 10 11 12 13 14 15 16 17 18 19 20
193
FTUS43 KIND 280006 AAA
TAFHUF
TAF AMD
KHUF 280006Z 2800/2824 26003KT P6SM VCTS FEW010 BKN060CB OVC100
     FM280600 01005KT P6SM BKN015
     FM280800 01005KT P6SM BKN010
     FM281000 02007KT P6SM BKN010
     FM281300 03008KT P6SM BKN025=

USA.gov is the U.S. government's official web portal to all federal, state and local government web resources and services.